Map

Track Data

SID SEASON NUMBER BASIN SUBBASIN NAME ISO_TIME NATURE LAT LON WMO_WIND WMO_PRES WMO_AGENCY TRACK_TYPE DIST2LAND LANDFALL IFLAG USA_AGENCY USA_ATCF_ID USA_LAT USA_LON USA_RECORD USA_STATUS USA_WIND USA_PRES USA_SSHS USA_R34_NE USA_R34_SE USA_R34_SW USA_R34_NW USA_R50_NE USA_R50_SE USA_R50_SW USA_R50_NW USA_R64_NE USA_R64_SE USA_R64_SW USA_R64_NW USA_POCI USA_ROCI USA_RMW USA_EYE TOKYO_LAT TOKYO_LON TOKYO_GRADE TOKYO_WIND TOKYO_PRES TOKYO_R50_DIR TOKYO_R50_LONG TOKYO_R50_SHORT TOKYO_R30_DIR TOKYO_R30_LONG TOKYO_R30_SHORT TOKYO_LAND CMA_LAT CMA_LON CMA_CAT CMA_WIND CMA_PRES HKO_LAT HKO_LON HKO_CAT HKO_WIND HKO_PRES NEWDELHI_LAT NEWDELHI_LON NEWDELHI_GRADE NEWDELHI_WIND NEWDELHI_PRES NEWDELHI_CI NEWDELHI_DP NEWDELHI_POCI REUNION_LAT REUNION_LON REUNION_TYPE REUNION_WIND REUNION_PRES REUNION_TNUM REUNION_CI REUNION_RMW REUNION_R34_NE REUNION_R34_SE REUNION_R34_SW REUNION_R34_NW REUNION_R50_NE REUNION_R50_SE REUNION_R50_SW REUNION_R50_NW REUNION_R64_NE REUNION_R64_SE REUNION_R64_SW REUNION_R64_NW BOM_LAT BOM_LON BOM_TYPE BOM_WIND BOM_PRES BOM_TNUM BOM_CI BOM_RMW BOM_R34_NE BOM_R34_SE BOM_R34_SW BOM_R34_NW BOM_R50_NE BOM_R50_SE BOM_R50_SW BOM_R50_NW BOM_R64_NE BOM_R64_SE BOM_R64_SW BOM_R64_NW BOM_ROCI BOM_POCI BOM_EYE BOM_POS_METHOD BOM_PRES_METHOD NADI_LAT NADI_LON NADI_CAT NADI_WIND NADI_PRES WELLINGTON_LAT WELLINGTON_LON WELLINGTON_WIND WELLINGTON_PRES DS824_LAT DS824_LON DS824_STAGE DS824_WIND DS824_PRES TD9636_LAT TD9636_LON TD9636_STAGE TD9636_WIND TD9636_PRES TD9635_LAT TD9635_LON TD9635_WIND TD9635_PRES TD9635_ROCI NEUMANN_LAT NEUMANN_LON NEUMANN_CLASS NEUMANN_WIND NEUMANN_PRES MLC_LAT MLC_LON MLC_CLASS MLC_WIND MLC_PRES USA_GUST BOM_GUST BOM_GUST_PER REUNION_GUST REUNION_GUST_PER USA_SEAHGT USA_SEARAD_NE USA_SEARAD_SE USA_SEARAD_SW USA_SEARAD_NW STORM_SPEED STORM_DIR
1932121N08122 1932 23 WP MM NOT_NAMED 1932-04-30 10:00:00 NR 7.50000 122.000 main 11 11 __________O___ -1 7.50000 122.000 2 13 273
1932121N08122 1932 23 WP MM NOT_NAMED 1932-04-30 12:00:00 NR 7.52062 121.558 main 55 62 __________P___ -1 7.52062 121.558 2 13 273
1932121N08122 1932 23 WP MM NOT_NAMED 1932-04-30 15:00:00 NR 7.54962 120.903 main 119 123 __________P___ -1 7.54962 120.903 2 13 272
1932121N08122 1932 23 WP MM NOT_NAMED 1932-04-30 18:00:00 NR 7.57486 120.274 main 185 195 __________P___ -1 7.57486 120.274 2 12 272
1932121N08122 1932 23 WP MM NOT_NAMED 1932-04-30 21:00:00 NR 7.59479 119.685 main 236 220 __________P___ -1 7.59479 119.685 2 12 272
1932121N08122 1932 23 WP MM NOT_NAMED 1932-04-30 22:00:00 NR 7.60000 119.500 main 220 189 __________O___ -1 7.60000 119.500 3 11 271
1932121N08122 1932 23 WP MM NOT_NAMED 1932-05-01 00:00:00 NR 7.60848 119.149 main 189 164 __________P___ -1 7.60848 119.149 3 10 271
1932121N08122 1932 23 WP MM NOT_NAMED 1932-05-01 03:00:00 NR 7.62129 118.660 main 164 126 __________P___ -1 7.62129 118.660 3 9 272
1932121N08122 1932 23 WP MM NOT_NAMED 1932-05-01 06:00:00 NR 7.64252 118.201 main 126 94 __________P___ -1 7.64252 118.201 3 9 274
1932121N08122 1932 23 WP MM NOT_NAMED 1932-05-01 09:00:00 NR 7.68148 117.751 main 94 80 __________P___ -1 7.68148 117.751 3 9 276
1932121N08122 1932 23 WP MM NOT_NAMED 1932-05-01 10:00:00 NR 7.70000 117.600 main 80 68 __________O___ -1 7.70000 117.600 4 10 278
1932121N08122 1932 23 WP MM NOT_NAMED 1932-05-01 12:00:00 NR 7.74691 117.268 main 68 56 __________P___ -1 7.74691 117.268 4 10 279
1932121N08122 1932 23 WP MM NOT_NAMED 1932-05-01 15:00:00 NR 7.83620 116.769 main 71 71 __________P___ -1 7.83620 116.769 4 10 281
1932121N08122 1932 23 WP MM NOT_NAMED 1932-05-01 18:00:00 NR 7.94253 116.286 main 108 108 __________P___ -1 7.94253 116.286 4 10 284
1932121N08122 1932 23 WP MM NOT_NAMED 1932-05-01 21:00:00 NR 8.05964 115.838 main 155 155 __________P___ -1 8.05964 115.838 4 9 285
1932121N08122 1932 23 WP MM NOT_NAMED 1932-05-01 22:00:00 NR 8.10000 115.700 main 166 166 __________O___ -1 8.10000 115.700 4 8 287
1932121N08122 1932 23 WP MM NOT_NAMED 1932-05-02 00:00:00 NR 8.17479 115.449 main 198 198 __________P___ -1 8.17479 115.449 4 7 288
1932121N08122 1932 23 WP MM NOT_NAMED 1932-05-02 03:00:00 NR 8.29339 115.110 main 231 231 __________P___ -1 8.29339 115.110 4 7 291
1932121N08122 1932 23 WP MM NOT_NAMED 1932-05-02 06:00:00 NR 8.41970 114.801 main 264 264 __________P___ -1 8.41970 114.801 4 7 293
1932121N08122 1932 23 WP MM NOT_NAMED 1932-05-02 09:00:00 NR 8.55366 114.501 main 299 288 __________P___ -1 8.55366 114.501 4 4 319
1932121N08122 1932 23 WP MM NOT_NAMED 1932-05-02 10:00:00 NR 8.60000 114.640 main 288 277 __________O___ -1 8.60000 114.400 4 4 45
1932121N08122 1932 23 WP MM NOT_NAMED 1932-05-02 12:00:00 NR 8.67934 114.625 main 289 289 __________P___ -1 8.70218 114.168 4 3 325
1932121N08122 1932 23 WP MM NOT_NAMED 1932-05-02 15:00:00 NR 8.78836 114.507 main 302 302 __________P___ -1 8.86196 113.819 4 3 310
1932121N08122 1932 23 WP MM NOT_NAMED 1932-05-02 18:00:00 NR 8.89050 114.373 main 315 315 __________P___ -1 9.01835 113.486 4 5 299
1932121N08122 1932 23 WP MM NOT_NAMED 1932-05-02 21:00:00 NR 9.00955 114.098 main 349 349 __________P___ -1 9.15885 113.188 4 6 294
1932121N08122 1932 23 WP MM NOT_NAMED 1932-05-02 22:00:00 NR 9.05000 114.000 main 363 360 __________O___ -1 9.20000 113.100 4 6 292
1932121N08122 1932 23 WP MM NOT_NAMED 1932-05-03 00:00:00 NR 9.12766 113.799 main 384 384 __________P___ -1 9.26436 112.954 4 7 291
1932121N08122 1932 23 WP MM NOT_NAMED 1932-05-03 03:00:00 NR 9.24422 113.479 main 419 422 __________P___ -1 9.34203 112.774 4 7 290
1932121N08122 1932 23 WP MM NOT_NAMED 1932-05-03 06:00:00 NR 9.35799 113.146 main 467 464 __________P___ -1 9.40818 112.616 4 7 289
1932121N08122 1932 23 WP MM NOT_NAMED 1932-05-03 09:00:00 NR 9.46587 112.810 main 464 455 __________P___ -1 9.47528 112.458 4 7 288
1932121N08122 1932 23 WP MM NOT_NAMED 1932-05-03 10:00:00 NR 9.50000 112.700 main 455 430 __________O___ -1 9.50000 112.400 4 6 286
1932121N08122 1932 23 WP MM NOT_NAMED 1932-05-03 12:00:00 NR 9.55206 112.500 main 430 403 __________P___ -1 9.54772 112.282 4 6 284
1932121N08122 1932 23 WP MM NOT_NAMED 1932-05-03 15:00:00 NR 9.62369 112.205 main 403 370 __________P___ -1 9.62533 112.093 4 6 284
1932121N08122 1932 23 WP MM NOT_NAMED 1932-05-03 18:00:00 NR 9.70288 111.899 main 370 336 __________P___ -1 9.72142 111.874 4 7 286
1932121N08122 1932 23 WP MM NOT_NAMED 1932-05-03 21:00:00 NR 9.80687 111.568 main 336 326 __________P___ -1 9.84856 111.604 4 7 288
1932121N08122 1932 23 WP MM NOT_NAMED 1932-05-03 22:00:00 NR 9.85000 111.450 main 320 287 __________O___ -1 9.90000 111.500 4 8 292
1932121N08122 1932 23 WP MM NOT_NAMED 1932-05-04 00:00:00 NR 9.95636 111.190 main 287 244 __________P___ -1 10.0242 111.257 4 9 294
1932121N08122 1932 23 WP MM NOT_NAMED 1932-05-04 03:00:00 NR 10.1442 110.771 main 244 180 __________P___ -1 10.2421 110.842 4 9 295
1932121N08122 1932 23 WP MM NOT_NAMED 1932-05-04 06:00:00 NR 10.3550 110.333 main 180 133 __________P___ -1 10.4810 110.395 4 10 297
1932121N08122 1932 23 WP MM NOT_NAMED 1932-05-04 09:00:00 NR 10.5761 109.894 main 133 125 __________P___ -1 10.7223 109.945 4 10 297
1932121N08122 1932 23 WP MM NOT_NAMED 1932-05-04 10:00:00 NR 10.6500 109.750 main 117 86 __________O___ -1 10.8000 109.800 4 10 298
1932121N08122 1932 23 WP MM NOT_NAMED 1932-05-04 12:00:00 NR 10.7962 109.463 main 86 39 __________P___ -1 10.9486 109.523 4 9 298
1932121N08122 1932 23 WP MM NOT_NAMED 1932-05-04 15:00:00 NR 11.0144 109.046 main 39 0 __________P___ -1 11.1564 109.134 4 9 297
1932121N08122 1932 23 WP MM NOT_NAMED 1932-05-04 18:00:00 NR 11.2105 108.631 main 0 0 __________P___ -1 11.3512 108.769 4 9 295
1932121N08122 1932 23 WP MM NOT_NAMED 1932-05-04 21:00:00 NR 11.3990 108.222 main 0 0 __________P___ -1 11.5384 108.416 4 9 292
1932121N08122 1932 23 WP MM NOT_NAMED 1932-05-04 22:00:00 NR 11.4400 108.060 main 0 0 __________O___ -1 11.6000 108.300 2 9 286
1932121N08122 1932 23 WP MM NOT_NAMED 1932-05-05 00:00:00 NR 11.5226 107.776 main 0 0 ______________ -1 2 8 294
1932121N08122 1932 23 WP MM NOT_NAMED 1932-05-05 03:00:00 NR 11.6939 107.473 main 0 0 ______________ -1 2 7 300
1932121N08122 1932 23 WP MM NOT_NAMED 1932-05-05 06:00:00 NR 11.8613 107.188 main 0 0 ______________ -1 2 7 302
1932121N08122 1932 23 WP MM NOT_NAMED 1932-05-05 09:00:00 NR 12.0373 106.900 main 0 0 ______________ -1 2 7 302
1932121N08122 1932 23 WP MM NOT_NAMED 1932-05-05 10:00:00 NR 12.1000 106.800 main 0 0 ______________ -1 7 303
1932121N08122 1932 23 WP MM NOT_NAMED 1932-05-05 12:00:00 NR 12.2333 106.589 main 0 0 ______________ -1 8 303
1932121N08122 1932 23 WP MM NOT_NAMED 1932-05-05 15:00:00 NR 12.4499 106.251 main 0 0 ______________ -1 8 303
1932121N08122 1932 23 WP MM NOT_NAMED 1932-05-05 18:00:00 NR 12.6809 105.893 main 0 0 ______________ -1 9 304
1932121N08122 1932 23 WP MM NOT_NAMED 1932-05-05 21:00:00 NR 12.9197 105.524 main 0 0 ______________ -1 9 304
1932121N08122 1932 23 WP MM NOT_NAMED 1932-05-05 22:00:00 NR 13.0000 105.400 main 0 ______________ -1 9 304

Digital Typhoon Data and Search

About IBTrACS Database

This database is a web-friendly format of International Best Track Archive for Climate Stewardship (IBTrACS), a global best track data archive curated by NOAA dating back to 1842.

Updated: 2021-10-08